sensor_id;sensor_type;location;lat;lon;timestamp;P1;durP1;ratioP1;P2;durP2;ratioP2
2289;SDS011;1153;47.986;7.898;2023-05-07T00:01:20;3.90;;;1.70;;
2289;SDS011;1153;47.986;7.898;2023-05-07T00:03:46;2.00;;;1.90;;
2289;SDS011;1153;47.986;7.898;2023-05-07T00:06:11;1.93;;;1.60;;
2289;SDS011;1153;47.986;7.898;2023-05-07T00:08:37;2.13;;;2.03;;
2289;SDS011;1153;47.986;7.898;2023-05-07T00:11:02;2.50;;;1.70;;
2289;SDS011;1153;47.986;7.898;2023-05-07T00:13:28;2.83;;;2.20;;
2289;SDS011;1153;47.986;7.898;2023-05-07T00:15:55;2.47;;;2.27;;
2289;SDS011;1153;47.986;7.898;2023-05-07T00:18:20;2.07;;;1.73;;
2289;SDS011;1153;47.986;7.898;2023-05-07T00:20:47;5.30;;;2.10;;
2289;SDS011;1153;47.986;7.898;2023-05-07T00:23:12;3.90;;;2.50;;
2289;SDS011;1153;47.986;7.898;2023-05-07T00:25:37;1.73;;;1.63;;
2289;SDS011;1153;47.986;7.898;2023-05-07T00:28:03;2.77;;;2.43;;
2289;SDS011;1153;47.986;7.898;2023-05-07T00:30:28;1.90;;;1.80;;
2289;SDS011;1153;47.986;7.898;2023-05-07T00:32:54;2.77;;;2.67;;
2289;SDS011;1153;47.986;7.898;2023-05-07T00:35:19;2.70;;;2.03;;
2289;SDS011;1153;47.986;7.898;2023-05-07T00:37:44;3.10;;;2.80;;
2289;SDS011;1153;47.986;7.898;2023-05-07T00:40:09;3.47;;;2.60;;
2289;SDS011;1153;47.986;7.898;2023-05-07T00:42:35;2.87;;;2.73;;
2289;SDS011;1153;47.986;7.898;2023-05-07T00:45:00;2.43;;;2.27;;
2289;SDS011;1153;47.986;7.898;2023-05-07T00:47:25;1.90;;;1.80;;
2289;SDS011;1153;47.986;7.898;2023-05-07T00:49:51;4.07;;;2.30;;
2289;SDS011;1153;47.986;7.898;2023-05-07T00:52:16;4.10;;;1.97;;
2289;SDS011;1153;47.986;7.898;2023-05-07T00:54:42;3.77;;;2.47;;
2289;SDS011;1153;47.986;7.898;2023-05-07T00:57:07;2.40;;;1.77;;
2289;SDS011;1153;47.986;7.898;2023-05-07T00:59:33;2.90;;;2.30;;
2289;SDS011;1153;47.986;7.898;2023-05-07T01:01:59;6.90;;;2.40;;
2289;SDS011;1153;47.986;7.898;2023-05-07T01:04:25;1.90;;;1.80;;
2289;SDS011;1153;47.986;7.898;2023-05-07T01:06:51;2.20;;;2.10;;
2289;SDS011;1153;47.986;7.898;2023-05-07T01:09:17;1.57;;;1.47;;
2289;SDS011;1153;47.986;7.898;2023-05-07T01:11:42;1.97;;;1.70;;
2289;SDS011;1153;47.986;7.898;2023-05-07T01:14:08;2.63;;;2.43;;
2289;SDS011;1153;47.986;7.898;2023-05-07T01:16:34;2.60;;;1.60;;
2289;SDS011;1153;47.986;7.898;2023-05-07T01:18:59;2.70;;;2.40;;
2289;SDS011;1153;47.986;7.898;2023-05-07T01:21:25;2.17;;;2.07;;
2289;SDS011;1153;47.986;7.898;2023-05-07T01:23:54;3.67;;;1.83;;
2289;SDS011;1153;47.986;7.898;2023-05-07T01:26:20;4.43;;;2.30;;
2289;SDS011;1153;47.986;7.898;2023-05-07T01:28:45;3.30;;;1.90;;
2289;SDS011;1153;47.986;7.898;2023-05-07T01:31:10;1.50;;;1.40;;
2289;SDS011;1153;47.986;7.898;2023-05-07T01:33:37;2.50;;;1.90;;
2289;SDS011;1153;47.986;7.898;2023-05-07T01:36:03;1.80;;;1.70;;
2289;SDS011;1153;47.986;7.898;2023-05-07T01:38:31;1.87;;;1.77;;
2289;SDS011;1153;47.986;7.898;2023-05-07T01:40:56;3.37;;;1.67;;
2289;SDS011;1153;47.986;7.898;2023-05-07T01:43:22;2.47;;;1.57;;
2289;SDS011;1153;47.986;7.898;2023-05-07T01:45:47;4.50;;;2.00;;
2289;SDS011;1153;47.986;7.898;2023-05-07T01:48:14;1.83;;;1.73;;
2289;SDS011;1153;47.986;7.898;2023-05-07T01:50:39;2.03;;;1.93;;
2289;SDS011;1153;47.986;7.898;2023-05-07T01:53:04;1.70;;;1.60;;
2289;SDS011;1153;47.986;7.898;2023-05-07T01:55:30;2.80;;;2.70;;
2289;SDS011;1153;47.986;7.898;2023-05-07T01:57:55;1.47;;;1.37;;
2289;SDS011;1153;47.986;7.898;2023-05-07T02:00:20;1.53;;;1.43;;
2289;SDS011;1153;47.986;7.898;2023-05-07T02:02:45;4.03;;;1.90;;
2289;SDS011;1153;47.986;7.898;2023-05-07T02:05:11;2.27;;;1.80;;
2289;SDS011;1153;47.986;7.898;2023-05-07T02:07:36;4.50;;;1.43;;
2289;SDS011;1153;47.986;7.898;2023-05-07T02:10:01;1.60;;;1.50;;
2289;SDS011;1153;47.986;7.898;2023-05-07T02:12:26;4.10;;;1.50;;
2289;SDS011;1153;47.986;7.898;2023-05-07T02:14:51;2.33;;;2.23;;
2289;SDS011;1153;47.986;7.898;2023-05-07T02:17:17;2.40;;;1.43;;
2289;SDS011;1153;47.986;7.898;2023-05-07T02:19:43;1.20;;;1.03;;
2289;SDS011;1153;47.986;7.898;2023-05-07T02:22:09;2.17;;;1.93;;
2289;SDS011;1153;47.986;7.898;2023-05-07T02:24:34;1.13;;;1.00;;
2289;SDS011;1153;47.986;7.898;2023-05-07T02:26:59;2.40;;;1.63;;
2289;SDS011;1153;47.986;7.898;2023-05-07T02:29:25;2.90;;;2.03;;
2289;SDS011;1153;47.986;7.898;2023-05-07T02:31:50;1.60;;;1.50;;
2289;SDS011;1153;47.986;7.898;2023-05-07T02:34:17;3.70;;;1.27;;
2289;SDS011;1153;47.986;7.898;2023-05-07T02:36:43;2.80;;;1.60;;
2289;SDS011;1153;47.986;7.898;2023-05-07T02:39:08;2.10;;;1.27;;
2289;SDS011;1153;47.986;7.898;2023-05-07T02:41:33;3.33;;;1.50;;
2289;SDS011;1153;47.986;7.898;2023-05-07T02:43:58;1.57;;;1.43;;
2289;SDS011;1153;47.986;7.898;2023-05-07T02:46:23;2.00;;;1.80;;
2289;SDS011;1153;47.986;7.898;2023-05-07T02:48:49;3.70;;;1.40;;
2289;SDS011;1153;47.986;7.898;2023-05-07T02:51:14;2.50;;;1.43;;
2289;SDS011;1153;47.986;7.898;2023-05-07T02:53:39;1.67;;;1.57;;
2289;SDS011;1153;47.986;7.898;2023-05-07T02:56:04;2.03;;;1.57;;
2289;SDS011;1153;47.986;7.898;2023-05-07T02:58:30;2.47;;;2.27;;
2289;SDS011;1153;47.986;7.898;2023-05-07T03:00:55;2.13;;;2.03;;
2289;SDS011;1153;47.986;7.898;2023-05-07T03:03:21;2.13;;;2.03;;
2289;SDS011;1153;47.986;7.898;2023-05-07T03:05:46;2.80;;;2.03;;
2289;SDS011;1153;47.986;7.898;2023-05-07T03:08:11;2.20;;;2.10;;
2289;SDS011;1153;47.986;7.898;2023-05-07T03:10:37;1.20;;;1.10;;
2289;SDS011;1153;47.986;7.898;2023-05-07T03:13:02;4.60;;;2.03;;
2289;SDS011;1153;47.986;7.898;2023-05-07T03:15:27;2.53;;;2.43;;
2289;SDS011;1153;47.986;7.898;2023-05-07T03:17:53;1.50;;;1.40;;
2289;SDS011;1153;47.986;7.898;2023-05-07T03:20:18;6.00;;;2.27;;
2289;SDS011;1153;47.986;7.898;2023-05-07T03:22:43;6.60;;;2.17;;
2289;SDS011;1153;47.986;7.898;2023-05-07T03:25:08;1.40;;;1.30;;
2289;SDS011;1153;47.986;7.898;2023-05-07T03:27:34;7.77;;;2.20;;
2289;SDS011;1153;47.986;7.898;2023-05-07T03:29:59;1.40;;;1.30;;
2289;SDS011;1153;47.986;7.898;2023-05-07T03:32:25;2.23;;;1.50;;
2289;SDS011;1153;47.986;7.898;2023-05-07T03:34:50;3.43;;;3.13;;
2289;SDS011;1153;47.986;7.898;2023-05-07T03:37:15;2.37;;;2.27;;
2289;SDS011;1153;47.986;7.898;2023-05-07T03:39:40;2.33;;;2.23;;
2289;SDS011;1153;47.986;7.898;2023-05-07T03:42:05;2.87;;;2.67;;
2289;SDS011;1153;47.986;7.898;2023-05-07T03:44:31;2.03;;;1.93;;
2289;SDS011;1153;47.986;7.898;2023-05-07T03:46:56;1.77;;;1.63;;
2289;SDS011;1153;47.986;7.898;2023-05-07T03:49:21;2.30;;;2.20;;
2289;SDS011;1153;47.986;7.898;2023-05-07T03:51:46;1.73;;;1.63;;
2289;SDS011;1153;47.986;7.898;2023-05-07T03:54:11;3.43;;;1.80;;
2289;SDS011;1153;47.986;7.898;2023-05-07T03:56:37;2.57;;;1.50;;
2289;SDS011;1153;47.986;7.898;2023-05-07T03:59:02;2.60;;;1.40;;
2289;SDS011;1153;47.986;7.898;2023-05-07T04:01:27;2.00;;;1.90;;
2289;SDS011;1153;47.986;7.898;2023-05-07T04:03:52;14.13;;;1.70;;
2289;SDS011;1153;47.986;7.898;2023-05-07T04:06:18;2.30;;;1.90;;
2289;SDS011;1153;47.986;7.898;2023-05-07T04:08:43;1.67;;;1.57;;
2289;SDS011;1153;47.986;7.898;2023-05-07T04:11:08;1.57;;;1.47;;
2289;SDS011;1153;47.986;7.898;2023-05-07T04:13:33;3.17;;;2.83;;
2289;SDS011;1153;47.986;7.898;2023-05-07T04:16:00;1.67;;;1.57;;
2289;SDS011;1153;47.986;7.898;2023-05-07T04:18:25;8.50;;;1.93;;
2289;SDS011;1153;47.986;7.898;2023-05-07T04:20:51;2.10;;;1.87;;
2289;SDS011;1153;47.986;7.898;2023-05-07T04:23:16;3.70;;;1.30;;
2289;SDS011;1153;47.986;7.898;2023-05-07T04:25:41;2.30;;;2.10;;
2289;SDS011;1153;47.986;7.898;2023-05-07T04:28:06;2.17;;;2.07;;
2289;SDS011;1153;47.986;7.898;2023-05-07T04:30:31;2.13;;;1.93;;
2289;SDS011;1153;47.986;7.898;2023-05-07T04:32:57;2.27;;;1.90;;
2289;SDS011;1153;47.986;7.898;2023-05-07T04:35:22;2.80;;;2.60;;
2289;SDS011;1153;47.986;7.898;2023-05-07T04:37:47;1.47;;;1.37;;
2289;SDS011;1153;47.986;7.898;2023-05-07T04:40:12;2.67;;;2.47;;
2289;SDS011;1153;47.986;7.898;2023-05-07T04:42:38;7.03;;;2.60;;
2289;SDS011;1153;47.986;7.898;2023-05-07T04:45:03;2.93;;;2.73;;
2289;SDS011;1153;47.986;7.898;2023-05-07T04:47:35;4.60;;;2.70;;
2289;SDS011;1153;47.986;7.898;2023-05-07T04:50:01;7.93;;;3.07;;
2289;SDS011;1153;47.986;7.898;2023-05-07T04:52:26;2.10;;;2.00;;
2289;SDS011;1153;47.986;7.898;2023-05-07T04:54:51;3.03;;;2.10;;
2289;SDS011;1153;47.986;7.898;2023-05-07T04:57:16;3.87;;;2.30;;
2289;SDS011;1153;47.986;7.898;2023-05-07T04:59:42;2.37;;;2.27;;
2289;SDS011;1153;47.986;7.898;2023-05-07T05:02:07;2.50;;;1.93;;
2289;SDS011;1153;47.986;7.898;2023-05-07T05:04:33;2.43;;;2.20;;
2289;SDS011;1153;47.986;7.898;2023-05-07T05:06:58;2.30;;;2.20;;
2289;SDS011;1153;47.986;7.898;2023-05-07T05:09:23;2.70;;;2.50;;
2289;SDS011;1153;47.986;7.898;2023-05-07T05:11:48;1.80;;;1.70;;
2289;SDS011;1153;47.986;7.898;2023-05-07T05:14:13;2.33;;;2.23;;
2289;SDS011;1153;47.986;7.898;2023-05-07T05:16:39;2.90;;;2.60;;
2289;SDS011;1153;47.986;7.898;2023-05-07T05:19:04;2.87;;;2.67;;
2289;SDS011;1153;47.986;7.898;2023-05-07T05:21:31;2.10;;;1.97;;
2289;SDS011;1153;47.986;7.898;2023-05-07T05:23:56;3.03;;;2.83;;
2289;SDS011;1153;47.986;7.898;2023-05-07T05:26:21;3.10;;;2.80;;
2289;SDS011;1153;47.986;7.898;2023-05-07T05:28:46;5.30;;;2.90;;
2289;SDS011;1153;47.986;7.898;2023-05-07T05:31:12;2.83;;;2.73;;
2289;SDS011;1153;47.986;7.898;2023-05-07T05:33:37;2.90;;;2.70;;
2289;SDS011;1153;47.986;7.898;2023-05-07T05:36:02;2.67;;;2.43;;
2289;SDS011;1153;47.986;7.898;2023-05-07T05:38:27;2.87;;;2.67;;
2289;SDS011;1153;47.986;7.898;2023-05-07T05:40:53;2.43;;;2.23;;
2289;SDS011;1153;47.986;7.898;2023-05-07T05:43:18;3.77;;;2.30;;
2289;SDS011;1153;47.986;7.898;2023-05-07T05:45:43;2.60;;;2.40;;
2289;SDS011;1153;47.986;7.898;2023-05-07T05:48:08;5.20;;;3.30;;
2289;SDS011;1153;47.986;7.898;2023-05-07T05:50:34;2.10;;;2.00;;
2289;SDS011;1153;47.986;7.898;2023-05-07T05:53:00;2.40;;;2.20;;
2289;SDS011;1153;47.986;7.898;2023-05-07T05:55:25;2.70;;;2.50;;
2289;SDS011;1153;47.986;7.898;2023-05-07T05:57:51;2.50;;;2.30;;
2289;SDS011;1153;47.986;7.898;2023-05-07T06:00:16;3.00;;;2.50;;
2289;SDS011;1153;47.986;7.898;2023-05-07T06:02:41;2.70;;;2.50;;
2289;SDS011;1153;47.986;7.898;2023-05-07T06:05:07;2.70;;;2.07;;
2289;SDS011;1153;47.986;7.898;2023-05-07T06:07:33;2.60;;;1.93;;
2289;SDS011;1153;47.986;7.898;2023-05-07T06:09:59;2.90;;;2.70;;
2289;SDS011;1153;47.986;7.898;2023-05-07T06:12:24;3.00;;;2.90;;
2289;SDS011;1153;47.986;7.898;2023-05-07T06:14:49;3.23;;;2.70;;
2289;SDS011;1153;47.986;7.898;2023-05-07T06:17:15;3.83;;;3.53;;
2289;SDS011;1153;47.986;7.898;2023-05-07T06:19:40;3.17;;;2.97;;
2289;SDS011;1153;47.986;7.898;2023-05-07T06:22:05;5.27;;;3.70;;
2289;SDS011;1153;47.986;7.898;2023-05-07T06:24:30;3.60;;;2.80;;
2289;SDS011;1153;47.986;7.898;2023-05-07T06:26:55;5.53;;;2.30;;
2289;SDS011;1153;47.986;7.898;2023-05-07T06:29:21;3.90;;;3.20;;
2289;SDS011;1153;47.986;7.898;2023-05-07T06:31:46;3.13;;;2.90;;
2289;SDS011;1153;47.986;7.898;2023-05-07T06:34:11;4.13;;;2.97;;
2289;SDS011;1153;47.986;7.898;2023-05-07T06:36:39;3.27;;;3.03;;
2289;SDS011;1153;47.986;7.898;2023-05-07T06:39:05;3.43;;;3.13;;
2289;SDS011;1153;47.986;7.898;2023-05-07T06:41:30;3.67;;;3.37;;
2289;SDS011;1153;47.986;7.898;2023-05-07T06:43:55;2.47;;;2.37;;
2289;SDS011;1153;47.986;7.898;2023-05-07T06:46:20;3.40;;;3.20;;
2289;SDS011;1153;47.986;7.898;2023-05-07T06:48:45;2.70;;;2.50;;
2289;SDS011;1153;47.986;7.898;2023-05-07T06:51:11;4.13;;;2.70;;
2289;SDS011;1153;47.986;7.898;2023-05-07T06:53:36;2.83;;;2.73;;
2289;SDS011;1153;47.986;7.898;2023-05-07T06:56:01;4.63;;;3.57;;
2289;SDS011;1153;47.986;7.898;2023-05-07T06:58:26;3.77;;;3.63;;
2289;SDS011;1153;47.986;7.898;2023-05-07T07:00:51;3.50;;;2.83;;
2289;SDS011;1153;47.986;7.898;2023-05-07T07:03:17;2.77;;;2.67;;
2289;SDS011;1153;47.986;7.898;2023-05-07T07:05:42;3.57;;;3.27;;
2289;SDS011;1153;47.986;7.898;2023-05-07T07:08:07;3.40;;;3.20;;
2289;SDS011;1153;47.986;7.898;2023-05-07T07:10:32;3.90;;;3.60;;
2289;SDS011;1153;47.986;7.898;2023-05-07T07:12:57;3.40;;;3.20;;
2289;SDS011;1153;47.986;7.898;2023-05-07T07:15:23;5.60;;;2.70;;
2289;SDS011;1153;47.986;7.898;2023-05-07T07:17:49;3.63;;;2.93;;
2289;SDS011;1153;47.986;7.898;2023-05-07T07:20:15;2.77;;;2.40;;
2289;SDS011;1153;47.986;7.898;2023-05-07T07:22:40;6.10;;;2.77;;
2289;SDS011;1153;47.986;7.898;2023-05-07T07:25:05;2.87;;;2.57;;
2289;SDS011;1153;47.986;7.898;2023-05-07T07:27:31;2.43;;;2.33;;
2289;SDS011;1153;47.986;7.898;2023-05-07T07:29:56;3.13;;;2.83;;
2289;SDS011;1153;47.986;7.898;2023-05-07T07:32:21;2.20;;;2.10;;
2289;SDS011;1153;47.986;7.898;2023-05-07T07:34:46;3.40;;;2.43;;
2289;SDS011;1153;47.986;7.898;2023-05-07T07:37:11;2.20;;;2.00;;
2289;SDS011;1153;47.986;7.898;2023-05-07T07:39:36;2.60;;;1.90;;
2289;SDS011;1153;47.986;7.898;2023-05-07T07:42:04;3.30;;;2.93;;
2289;SDS011;1153;47.986;7.898;2023-05-07T07:44:30;2.47;;;2.00;;
2289;SDS011;1153;47.986;7.898;2023-05-07T07:46:55;3.10;;;2.80;;
2289;SDS011;1153;47.986;7.898;2023-05-07T07:49:20;2.20;;;2.10;;
2289;SDS011;1153;47.986;7.898;2023-05-07T07:51:45;2.33;;;2.23;;
2289;SDS011;1153;47.986;7.898;2023-05-07T07:54:11;2.50;;;2.23;;
2289;SDS011;1153;47.986;7.898;2023-05-07T07:56:36;2.67;;;2.57;;
2289;SDS011;1153;47.986;7.898;2023-05-07T07:59:01;3.10;;;2.87;;
2289;SDS011;1153;47.986;7.898;2023-05-07T08:01:26;2.07;;;1.97;;
2289;SDS011;1153;47.986;7.898;2023-05-07T08:03:52;5.20;;;2.77;;
2289;SDS011;1153;47.986;7.898;2023-05-07T08:06:17;2.60;;;2.40;;
2289;SDS011;1153;47.986;7.898;2023-05-07T08:08:42;2.80;;;2.60;;
2289;SDS011;1153;47.986;7.898;2023-05-07T08:11:07;3.23;;;3.13;;
2289;SDS011;1153;47.986;7.898;2023-05-07T08:13:33;3.17;;;2.87;;
2289;SDS011;1153;47.986;7.898;2023-05-07T08:15:58;3.13;;;2.93;;
2289;SDS011;1153;47.986;7.898;2023-05-07T08:18:23;6.53;;;2.33;;
2289;SDS011;1153;47.986;7.898;2023-05-07T08:20:49;2.53;;;2.43;;
2289;SDS011;1153;47.986;7.898;2023-05-07T08:23:14;2.70;;;2.50;;
2289;SDS011;1153;47.986;7.898;2023-05-07T08:25:40;3.20;;;2.83;;
2289;SDS011;1153;47.986;7.898;2023-05-07T08:28:05;4.83;;;2.40;;
2289;SDS011;1153;47.986;7.898;2023-05-07T08:30:30;3.03;;;2.93;;
2289;SDS011;1153;47.986;7.898;2023-05-07T08:32:55;2.27;;;2.17;;
2289;SDS011;1153;47.986;7.898;2023-05-07T08:35:20;3.50;;;2.10;;
2289;SDS011;1153;47.986;7.898;2023-05-07T08:37:46;2.77;;;2.57;;
2289;SDS011;1153;47.986;7.898;2023-05-07T08:40:11;2.83;;;2.63;;
2289;SDS011;1153;47.986;7.898;2023-05-07T08:42:36;2.37;;;2.10;;
2289;SDS011;1153;47.986;7.898;2023-05-07T08:45:03;2.60;;;2.40;;
2289;SDS011;1153;47.986;7.898;2023-05-07T08:47:33;2.97;;;2.87;;
2289;SDS011;1153;47.986;7.898;2023-05-07T08:50:00;2.03;;;1.93;;
2289;SDS011;1153;47.986;7.898;2023-05-07T08:52:25;2.50;;;2.40;;
2289;SDS011;1153;47.986;7.898;2023-05-07T08:54:51;2.83;;;2.70;;
2289;SDS011;1153;47.986;7.898;2023-05-07T08:57:16;2.80;;;2.70;;
2289;SDS011;1153;47.986;7.898;2023-05-07T08:59:42;3.17;;;3.07;;
2289;SDS011;1153;47.986;7.898;2023-05-07T09:02:07;3.00;;;2.80;;
2289;SDS011;1153;47.986;7.898;2023-05-07T09:04:34;2.47;;;2.37;;
2289;SDS011;1153;47.986;7.898;2023-05-07T09:06:59;2.43;;;2.13;;
2289;SDS011;1153;47.986;7.898;2023-05-07T09:09:30;2.70;;;2.50;;
2289;SDS011;1153;47.986;7.898;2023-05-07T09:11:57;2.30;;;2.10;;
2289;SDS011;1153;47.986;7.898;2023-05-07T09:14:24;3.33;;;2.80;;
2289;SDS011;1153;47.986;7.898;2023-05-07T09:16:51;2.70;;;2.13;;
2289;SDS011;1153;47.986;7.898;2023-05-07T09:19:18;3.30;;;3.00;;
2289;SDS011;1153;47.986;7.898;2023-05-07T09:21:46;4.63;;;4.23;;
2289;SDS011;1153;47.986;7.898;2023-05-07T09:24:12;14.87;;;3.30;;
2289;SDS011;1153;47.986;7.898;2023-05-07T09:26:40;3.67;;;3.43;;
2289;SDS011;1153;47.986;7.898;2023-05-07T09:29:05;3.03;;;2.60;;
2289;SDS011;1153;47.986;7.898;2023-05-07T09:31:31;2.80;;;2.70;;
2289;SDS011;1153;47.986;7.898;2023-05-07T09:33:56;3.30;;;3.00;;
2289;SDS011;1153;47.986;7.898;2023-05-07T09:36:22;4.13;;;3.23;;
2289;SDS011;1153;47.986;7.898;2023-05-07T09:38:47;4.07;;;3.87;;
2289;SDS011;1153;47.986;7.898;2023-05-07T09:41:14;3.27;;;3.17;;
2289;SDS011;1153;47.986;7.898;2023-05-07T09:43:39;4.90;;;4.60;;
2289;SDS011;1153;47.986;7.898;2023-05-07T09:46:10;3.57;;;3.37;;
2289;SDS011;1153;47.986;7.898;2023-05-07T09:48:39;4.43;;;3.80;;
2289;SDS011;1153;47.986;7.898;2023-05-07T09:51:51;3.40;;;3.30;;
2289;SDS011;1153;47.986;7.898;2023-05-07T09:53:52;2.80;;;2.60;;
2289;SDS011;1153;47.986;7.898;2023-05-07T09:56:17;2.43;;;2.33;;
2289;SDS011;1153;47.986;7.898;2023-05-07T09:58:43;5.20;;;2.50;;
2289;SDS011;1153;47.986;7.898;2023-05-07T10:01:10;4.03;;;2.50;;
2289;SDS011;1153;47.986;7.898;2023-05-07T10:03:35;2.30;;;2.20;;
2289;SDS011;1153;47.986;7.898;2023-05-07T10:06:01;2.00;;;1.77;;
2289;SDS011;1153;47.986;7.898;2023-05-07T10:08:26;2.50;;;2.40;;
2289;SDS011;1153;47.986;7.898;2023-05-07T10:10:52;2.57;;;2.37;;
2289;SDS011;1153;47.986;7.898;2023-05-07T10:13:18;2.57;;;2.37;;
2289;SDS011;1153;47.986;7.898;2023-05-07T10:15:44;2.33;;;2.13;;
2289;SDS011;1153;47.986;7.898;2023-05-07T10:18:09;2.97;;;2.87;;
2289;SDS011;1153;47.986;7.898;2023-05-07T10:20:34;3.13;;;2.93;;
2289;SDS011;1153;47.986;7.898;2023-05-07T10:23:01;3.20;;;3.10;;
2289;SDS011;1153;47.986;7.898;2023-05-07T10:25:31;5.00;;;1.90;;
2289;SDS011;1153;47.986;7.898;2023-05-07T10:27:57;3.30;;;3.10;;
2289;SDS011;1153;47.986;7.898;2023-05-07T10:33:08;2.87;;;2.67;;
2289;SDS011;1153;47.986;7.898;2023-05-07T10:35:38;4.20;;;2.47;;
2289;SDS011;1153;47.986;7.898;2023-05-07T10:38:03;3.23;;;3.00;;
2289;SDS011;1153;47.986;7.898;2023-05-07T10:40:30;4.60;;;2.97;;
2289;SDS011;1153;47.986;7.898;2023-05-07T10:42:56;3.30;;;3.10;;
2289;SDS011;1153;47.986;7.898;2023-05-07T10:45:21;3.97;;;3.30;;
2289;SDS011;1153;47.986;7.898;2023-05-07T10:50:31;3.63;;;3.27;;
2289;SDS011;1153;47.986;7.898;2023-05-07T10:55:40;3.50;;;3.27;;
2289;SDS011;1153;47.986;7.898;2023-05-07T11:01:08;3.37;;;3.17;;
2289;SDS011;1153;47.986;7.898;2023-05-07T11:03:36;2.93;;;2.83;;
2289;SDS011;1153;47.986;7.898;2023-05-07T11:06:21;3.17;;;2.87;;
2289;SDS011;1153;47.986;7.898;2023-05-07T11:11:17;3.57;;;3.47;;
2289;SDS011;1153;47.986;7.898;2023-05-07T11:18:47;2.70;;;2.60;;
2289;SDS011;1153;47.986;7.898;2023-05-07T11:21:13;3.33;;;3.20;;
2289;SDS011;1153;47.986;7.898;2023-05-07T11:26:06;3.20;;;2.80;;
2289;SDS011;1153;47.986;7.898;2023-05-07T11:28:39;4.03;;;3.17;;
2289;SDS011;1153;47.986;7.898;2023-05-07T11:31:04;2.10;;;2.00;;
2289;SDS011;1153;47.986;7.898;2023-05-07T11:33:30;2.50;;;2.40;;
2289;SDS011;1153;47.986;7.898;2023-05-07T11:35:55;4.07;;;2.87;;
2289;SDS011;1153;47.986;7.898;2023-05-07T11:38:21;3.03;;;2.73;;
2289;SDS011;1153;47.986;7.898;2023-05-07T11:40:50;2.63;;;2.53;;
2289;SDS011;1153;47.986;7.898;2023-05-07T11:43:16;3.83;;;2.03;;
2289;SDS011;1153;47.986;7.898;2023-05-07T11:45:41;2.30;;;2.20;;
2289;SDS011;1153;47.986;7.898;2023-05-07T11:48:06;2.77;;;2.57;;
2289;SDS011;1153;47.986;7.898;2023-05-07T11:50:31;3.13;;;2.80;;
2289;SDS011;1153;47.986;7.898;2023-05-07T11:52:56;2.87;;;2.77;;
2289;SDS011;1153;47.986;7.898;2023-05-07T11:55:23;2.30;;;2.20;;
2289;SDS011;1153;47.986;7.898;2023-05-07T11:57:49;2.30;;;2.10;;
2289;SDS011;1153;47.986;7.898;2023-05-07T12:00:18;2.60;;;2.50;;
2289;SDS011;1153;47.986;7.898;2023-05-07T12:02:44;2.67;;;2.57;;
2289;SDS011;1153;47.986;7.898;2023-05-07T12:05:10;2.10;;;2.00;;
2289;SDS011;1153;47.986;7.898;2023-05-07T12:07:35;3.07;;;2.97;;
2289;SDS011;1153;47.986;7.898;2023-05-07T12:10:07;2.77;;;2.67;;
2289;SDS011;1153;47.986;7.898;2023-05-07T12:12:39;3.57;;;3.37;;
2289;SDS011;1153;47.986;7.898;2023-05-07T12:15:05;3.00;;;2.80;;
2289;SDS011;1153;47.986;7.898;2023-05-07T12:17:30;3.07;;;2.80;;
2289;SDS011;1153;47.986;7.898;2023-05-07T12:19:55;4.53;;;3.40;;
2289;SDS011;1153;47.986;7.898;2023-05-07T12:22:21;2.93;;;2.83;;
2289;SDS011;1153;47.986;7.898;2023-05-07T12:24:47;3.13;;;3.00;;
2289;SDS011;1153;47.986;7.898;2023-05-07T12:27:13;3.23;;;3.10;;
2289;SDS011;1153;47.986;7.898;2023-05-07T12:29:38;3.50;;;3.30;;
2289;SDS011;1153;47.986;7.898;2023-05-07T12:32:12;5.83;;;3.63;;
2289;SDS011;1153;47.986;7.898;2023-05-07T12:34:37;3.70;;;3.60;;
2289;SDS011;1153;47.986;7.898;2023-05-07T12:37:04;3.20;;;3.00;;
2289;SDS011;1153;47.986;7.898;2023-05-07T12:39:29;2.83;;;2.73;;
2289;SDS011;1153;47.986;7.898;2023-05-07T12:41:55;2.80;;;2.60;;
2289;SDS011;1153;47.986;7.898;2023-05-07T12:44:25;3.93;;;3.57;;
2289;SDS011;1153;47.986;7.898;2023-05-07T12:46:51;2.63;;;2.43;;
2289;SDS011;1153;47.986;7.898;2023-05-07T12:49:16;2.77;;;2.57;;
2289;SDS011;1153;47.986;7.898;2023-05-07T12:51:43;2.90;;;2.50;;
2289;SDS011;1153;47.986;7.898;2023-05-07T12:54:08;2.60;;;2.13;;
2289;SDS011;1153;47.986;7.898;2023-05-07T12:56:35;3.73;;;3.53;;
2289;SDS011;1153;47.986;7.898;2023-05-07T12:59:00;3.03;;;2.90;;
2289;SDS011;1153;47.986;7.898;2023-05-07T13:01:29;3.23;;;3.00;;
2289;SDS011;1153;47.986;7.898;2023-05-07T13:03:55;3.33;;;3.10;;
2289;SDS011;1153;47.986;7.898;2023-05-07T13:06:21;3.53;;;3.37;;
2289;SDS011;1153;47.986;7.898;2023-05-07T13:08:46;2.83;;;2.70;;
2289;SDS011;1153;47.986;7.898;2023-05-07T13:11:11;3.40;;;3.30;;
2289;SDS011;1153;47.986;7.898;2023-05-07T13:13:38;2.97;;;2.87;;
2289;SDS011;1153;47.986;7.898;2023-05-07T13:16:04;2.63;;;2.53;;
2289;SDS011;1153;47.986;7.898;2023-05-07T13:18:30;2.37;;;2.27;;
2289;SDS011;1153;47.986;7.898;2023-05-07T13:20:55;2.50;;;2.30;;
2289;SDS011;1153;47.986;7.898;2023-05-07T13:23:20;2.53;;;2.43;;
2289;SDS011;1153;47.986;7.898;2023-05-07T13:25:46;2.17;;;1.97;;
2289;SDS011;1153;47.986;7.898;2023-05-07T13:28:11;3.10;;;2.50;;
2289;SDS011;1153;47.986;7.898;2023-05-07T13:30:37;2.83;;;2.73;;
2289;SDS011;1153;47.986;7.898;2023-05-07T13:33:02;2.07;;;1.87;;
2289;SDS011;1153;47.986;7.898;2023-05-07T13:35:27;2.90;;;2.70;;
2289;SDS011;1153;47.986;7.898;2023-05-07T13:37:52;2.23;;;2.10;;
2289;SDS011;1153;47.986;7.898;2023-05-07T13:40:19;1.70;;;1.47;;
2289;SDS011;1153;47.986;7.898;2023-05-07T13:42:44;2.33;;;1.70;;
2289;SDS011;1153;47.986;7.898;2023-05-07T13:45:10;2.50;;;2.40;;
2289;SDS011;1153;47.986;7.898;2023-05-07T13:47:35;2.93;;;2.83;;
2289;SDS011;1153;47.986;7.898;2023-05-07T13:50:00;2.17;;;2.07;;
2289;SDS011;1153;47.986;7.898;2023-05-07T13:52:25;5.13;;;2.67;;
2289;SDS011;1153;47.986;7.898;2023-05-07T13:54:51;2.43;;;2.33;;
2289;SDS011;1153;47.986;7.898;2023-05-07T13:57:17;3.43;;;2.60;;
2289;SDS011;1153;47.986;7.898;2023-05-07T13:59:42;2.10;;;2.00;;
2289;SDS011;1153;47.986;7.898;2023-05-07T14:02:07;5.70;;;4.00;;
2289;SDS011;1153;47.986;7.898;2023-05-07T14:04:33;2.30;;;2.10;;
2289;SDS011;1153;47.986;7.898;2023-05-07T14:06:59;3.00;;;2.63;;
2289;SDS011;1153;47.986;7.898;2023-05-07T14:09:24;2.80;;;2.60;;
2289;SDS011;1153;47.986;7.898;2023-05-07T14:11:49;2.90;;;2.70;;
2289;SDS011;1153;47.986;7.898;2023-05-07T14:14:16;3.20;;;2.87;;
2289;SDS011;1153;47.986;7.898;2023-05-07T14:16:42;3.53;;;2.40;;
2289;SDS011;1153;47.986;7.898;2023-05-07T14:19:07;3.63;;;2.70;;
2289;SDS011;1153;47.986;7.898;2023-05-07T14:21:32;5.33;;;2.70;;
2289;SDS011;1153;47.986;7.898;2023-05-07T14:23:57;2.77;;;2.67;;
2289;SDS011;1153;47.986;7.898;2023-05-07T14:26:22;2.40;;;2.30;;
2289;SDS011;1153;47.986;7.898;2023-05-07T14:28:48;2.20;;;2.10;;
2289;SDS011;1153;47.986;7.898;2023-05-07T14:31:13;3.43;;;2.80;;
2289;SDS011;1153;47.986;7.898;2023-05-07T14:33:38;2.43;;;2.33;;
2289;SDS011;1153;47.986;7.898;2023-05-07T14:36:04;2.77;;;2.30;;
2289;SDS011;1153;47.986;7.898;2023-05-07T14:38:29;2.83;;;2.73;;
2289;SDS011;1153;47.986;7.898;2023-05-07T14:40:55;2.73;;;2.30;;
2289;SDS011;1153;47.986;7.898;2023-05-07T14:43:21;2.60;;;2.50;;
2289;SDS011;1153;47.986;7.898;2023-05-07T14:45:46;2.57;;;2.20;;
2289;SDS011;1153;47.986;7.898;2023-05-07T14:48:11;2.40;;;2.20;;
2289;SDS011;1153;47.986;7.898;2023-05-07T14:50:40;2.20;;;2.03;;
2289;SDS011;1153;47.986;7.898;2023-05-07T14:53:05;2.93;;;2.50;;
2289;SDS011;1153;47.986;7.898;2023-05-07T14:55:30;1.93;;;1.80;;
2289;SDS011;1153;47.986;7.898;2023-05-07T14:57:55;1.87;;;1.77;;
2289;SDS011;1153;47.986;7.898;2023-05-07T15:00:21;2.10;;;2.00;;
2289;SDS011;1153;47.986;7.898;2023-05-07T15:02:46;1.63;;;1.53;;
2289;SDS011;1153;47.986;7.898;2023-05-07T15:05:11;2.63;;;1.20;;
2289;SDS011;1153;47.986;7.898;2023-05-07T15:07:36;1.97;;;1.40;;
2289;SDS011;1153;47.986;7.898;2023-05-07T15:10:02;2.40;;;1.10;;
2289;SDS011;1153;47.986;7.898;2023-05-07T15:12:27;3.53;;;1.40;;
2289;SDS011;1153;47.986;7.898;2023-05-07T15:14:52;1.63;;;1.53;;
2289;SDS011;1153;47.986;7.898;2023-05-07T15:17:17;1.33;;;1.10;;
2289;SDS011;1153;47.986;7.898;2023-05-07T15:19:42;2.33;;;0.87;;
2289;SDS011;1153;47.986;7.898;2023-05-07T15:22:08;0.80;;;0.70;;
2289;SDS011;1153;47.986;7.898;2023-05-07T15:24:33;0.90;;;0.80;;
2289;SDS011;1153;47.986;7.898;2023-05-07T15:26:58;0.90;;;0.70;;